Time;durP1;ratioP1;P1;durP2;ratioP2;P2;SDS_P1;SDS_P2;PMS_P1;PMS_P2;Temp;Humidity;BMP_temperature;BMP_pressure;BME280_temperature;BME280_humidity;BME280_pressure;Samples;Min_cycle;Max_cycle;Signal;HPM_P1;HPM_P2
2024/01/25 00:00:29;;;;;;;14.32;2.35;;;7.70;99.90;;;;;;5076287;28;20079;-72
2024/01/25 00:02:55;;;;;;;23.13;2.60;;;7.60;99.90;;;;;;5056464;28;20088;-72
2024/01/25 00:05:20;;;;;;;18.17;2.90;;;7.60;99.90;;;;;;5058416;28;20044;-72
2024/01/25 00:07:50;;;;;;;10.80;2.47;;;7.40;99.90;;;;;;5043720;28;20052;-72
2024/01/25 00:10:19;;;;;;;16.20;2.90;;;7.40;99.90;;;;;;5078536;28;20045;-72
2024/01/25 00:12:44;;;;;;;19.98;2.22;;;7.30;99.90;;;;;;5047450;28;20057;-72
2024/01/25 00:15:10;;;;;;;11.18;1.67;;;7.20;99.90;;;;;;5063313;28;20045;-72
2024/01/25 00:17:36;;;;;;;16.02;3.00;;;7.10;99.90;;;;;;5057772;28;20090;-72
2024/01/25 00:20:04;;;;;;;17.40;2.58;;;7.10;99.90;;;;;;5064256;28;20033;-72
2024/01/25 00:22:29;;;;;;;12.35;2.35;;;7.00;99.90;;;;;;5075068;28;20124;-72
2024/01/25 00:24:55;;;;;;;6.32;1.80;;;6.90;99.90;;;;;;5066833;28;20088;-72
2024/01/25 00:27:21;;;;;;;12.65;1.75;;;6.90;99.90;;;;;;5053423;28;20064;-72
2024/01/25 00:29:46;;;;;;;11.63;2.22;;;6.80;99.90;;;;;;5095045;28;20037;-72
2024/01/25 00:32:12;;;;;;;7.30;1.73;;;6.80;99.90;;;;;;5041577;28;20067;-72
2024/01/25 00:34:38;;;;;;;10.25;2.08;;;6.70;99.90;;;;;;5027340;28;20044;-72
2024/01/25 00:37:04;;;;;;;21.00;2.03;;;6.70;99.90;;;;;;5061222;28;20056;-72
2024/01/25 00:39:30;;;;;;;8.13;2.50;;;6.70;99.90;;;;;;5047595;28;20079;-72
2024/01/25 00:42:04;;;;;;;10.85;1.77;;;6.60;99.90;;;;;;5051377;28;20045;-72
2024/01/25 00:44:30;;;;;;;13.45;1.95;;;6.60;99.90;;;;;;5064232;28;20044;-72
2024/01/25 00:46:56;;;;;;;9.13;2.17;;;6.50;99.90;;;;;;5032324;28;20538;-72
2024/01/25 00:49:22;;;;;;;17.52;2.53;;;6.50;99.90;;;;;;5060275;28;20048;-72
2024/01/25 00:51:50;;;;;;;16.00;1.88;;;6.40;99.90;;;;;;5046849;28;20124;-72
2024/01/25 00:54:16;;;;;;;20.80;2.58;;;6.30;99.90;;;;;;5061322;28;20060;-72
2024/01/25 00:56:42;;;;;;;22.98;2.17;;;6.20;99.90;;;;;;5024573;28;20364;-72
2024/01/25 00:59:09;;;;;;;16.17;2.45;;;6.10;99.90;;;;;;5056944;28;20037;-72
2024/01/25 01:01:35;;;;;;;12.38;1.17;;;6.10;99.90;;;;;;5077728;28;20069;-71
2024/01/25 01:04:00;;;;;;;17.35;1.65;;;6.00;99.90;;;;;;5065345;28;20049;-72
2024/01/25 01:06:27;;;;;;;13.43;1.77;;;5.90;99.90;;;;;;5029246;28;20092;-72
2024/01/25 01:08:52;;;;;;;17.35;1.60;;;5.90;99.90;;;;;;5058973;28;20028;-71
2024/01/25 01:11:19;;;;;;;11.02;1.85;;;5.90;99.90;;;;;;5063672;28;20033;-72
2024/01/25 01:13:44;;;;;;;12.43;2.28;;;5.90;99.90;;;;;;5052230;28;20054;-71
2024/01/25 01:16:10;;;;;;;15.65;3.25;;;5.80;99.90;;;;;;5048536;28;20029;-71
2024/01/25 01:18:38;;;;;;;13.23;1.45;;;5.80;99.90;;;;;;5080109;28;20110;-72
2024/01/25 01:21:04;;;;;;;12.30;2.88;;;5.90;99.90;;;;;;5053756;28;20173;-72
2024/01/25 01:23:30;;;;;;;16.02;1.85;;;5.90;99.90;;;;;;5041008;28;20053;-72
2024/01/25 01:25:56;;;;;;;19.25;1.65;;;5.90;99.90;;;;;;5038682;28;20047;-71
2024/01/25 01:28:21;;;;;;;23.60;2.92;;;5.90;99.90;;;;;;5042702;28;20098;-72
2024/01/25 01:30:47;;;;;;;13.68;1.83;;;6.00;99.90;;;;;;5060112;28;20043;-72
2024/01/25 01:33:13;;;;;;;16.95;2.90;;;6.00;99.90;;;;;;5058364;28;20066;-72
2024/01/25 01:35:38;;;;;;;22.30;2.30;;;5.90;99.90;;;;;;5050914;28;20036;-72
2024/01/25 01:38:04;;;;;;;14.88;1.58;;;5.90;99.90;;;;;;5021135;28;20056;-72
2024/01/25 01:40:30;;;;;;;21.77;2.25;;;5.90;99.90;;;;;;5016393;28;20045;-72
2024/01/25 01:43:00;;;;;;;14.75;2.28;;;5.90;99.90;;;;;;5026254;28;20443;-72
2024/01/25 01:45:26;;;;;;;25.05;4.35;;;5.80;99.90;;;;;;5025366;28;20048;-72
2024/01/25 01:47:52;;;;;;;11.48;1.60;;;5.80;99.90;;;;;;5039722;28;20037;-72
2024/01/25 01:50:18;;;;;;;9.90;2.00;;;5.80;99.90;;;;;;5051178;28;20461;-72
2024/01/25 01:52:45;;;;;;;23.48;3.00;;;5.70;99.90;;;;;;5043327;28;20045;-72
2024/01/25 01:55:11;;;;;;;11.02;2.55;;;5.70;99.90;;;;;;5041608;28;20049;-72
2024/01/25 01:57:37;;;;;;;20.88;1.98;;;5.70;99.90;;;;;;5054721;28;20045;-71
2024/01/25 02:00:08;;;;;;;5.43;1.77;;;5.60;99.90;;;;;;5031812;28;20033;-71
2024/01/25 02:02:33;;;;;;;11.90;2.30;;;5.60;99.90;;;;;;5026515;28;20057;-71
2024/01/25 02:04:59;;;;;;;9.68;1.75;;;5.60;99.90;;;;;;5094344;28;20043;-72
2024/01/25 02:07:26;;;;;;;10.70;2.08;;;5.60;99.90;;;;;;5035939;28;20148;-71
2024/01/25 02:09:52;;;;;;;18.70;2.50;;;5.60;99.90;;;;;;5067297;28;20104;-72
2024/01/25 02:12:17;;;;;;;14.43;2.53;;;5.50;99.90;;;;;;5072621;28;20064;-72
2024/01/25 02:14:43;;;;;;;12.30;2.47;;;5.50;99.90;;;;;;5060760;28;20150;-72
2024/01/25 02:17:09;;;;;;;18.73;2.85;;;5.60;99.90;;;;;;5085158;28;20051;-72
2024/01/25 02:19:35;;;;;;;16.58;3.28;;;5.50;99.90;;;;;;5074884;28;20051;-71
2024/01/25 02:22:04;;;;;;;8.32;1.40;;;5.50;99.90;;;;;;5069429;28;20077;-72
2024/01/25 02:24:29;;;;;;;16.58;3.15;;;5.50;99.90;;;;;;5035536;28;20095;-72
2024/01/25 02:26:55;;;;;;;16.02;2.63;;;5.50;99.90;;;;;;5045146;28;20049;-72
2024/01/25 02:29:21;;;;;;;12.80;1.73;;;5.50;99.90;;;;;;5084171;28;20040;-72
2024/01/25 02:31:47;;;;;;;15.57;1.80;;;5.40;99.90;;;;;;5045218;28;20040;-72
2024/01/25 02:34:12;;;;;;;12.70;1.88;;;5.40;99.90;;;;;;5069610;28;20041;-71
2024/01/25 02:36:38;;;;;;;15.55;2.75;;;5.40;99.90;;;;;;5053612;28;20052;-72
2024/01/25 02:39:04;;;;;;;16.90;2.13;;;5.40;99.90;;;;;;5023351;28;20029;-72
2024/01/25 02:41:31;;;;;;;9.30;2.35;;;5.30;99.90;;;;;;5038546;28;20551;-71
2024/01/25 02:43:57;;;;;;;19.33;3.25;;;5.30;99.90;;;;;;5043307;28;20052;-72
2024/01/25 02:46:23;;;;;;;14.57;2.38;;;5.30;99.90;;;;;;5045101;28;20044;-72
2024/01/25 02:48:49;;;;;;;17.52;2.45;;;5.30;99.90;;;;;;5094621;28;20427;-71
2024/01/25 02:51:15;;;;;;;13.00;1.55;;;5.30;99.90;;;;;;5041019;28;20416;-71
2024/01/25 02:53:41;;;;;;;9.23;2.55;;;5.30;99.90;;;;;;5069580;28;20045;-72
2024/01/25 02:56:07;;;;;;;19.83;2.33;;;5.30;99.90;;;;;;5062298;28;20092;-72
2024/01/25 02:58:33;;;;;;;17.00;1.83;;;5.30;99.90;;;;;;5033789;28;20071;-72
2024/01/25 03:00:58;;;;;;;9.60;2.00;;;5.20;99.90;;;;;;5045093;28;20051;-71
2024/01/25 03:03:24;;;;;;;19.85;2.67;;;5.20;99.90;;;;;;5049800;28;20053;-72
2024/01/25 03:05:53;;;;;;;20.27;2.28;;;5.20;99.90;;;;;;5093942;28;20044;-72
2024/01/25 03:08:19;;;;;;;14.30;2.70;;;5.20;99.90;;;;;;5048017;28;20106;-72
2024/01/25 03:10:49;;;;;;;8.32;2.05;;;5.10;99.90;;;;;;5033143;28;20512;-71
2024/01/25 03:13:16;;;;;;;12.57;2.03;;;5.00;99.90;;;;;;5049547;28;20045;-72
2024/01/25 03:15:43;;;;;;;18.63;2.53;;;5.10;99.90;;;;;;5053455;28;20041;-72
2024/01/25 03:18:09;;;;;;;16.35;2.75;;;5.00;99.90;;;;;;5078083;28;20135;-71
2024/01/25 03:20:35;;;;;;;16.83;2.70;;;5.00;99.90;;;;;;5062882;28;20076;-72
2024/01/25 03:23:01;;;;;;;16.27;2.17;;;5.00;99.90;;;;;;5048723;28;20065;-72
2024/01/25 03:25:26;;;;;;;14.88;2.25;;;4.90;99.90;;;;;;5051111;28;20033;-71
2024/01/25 03:27:52;;;;;;;11.00;1.67;;;4.90;99.90;;;;;;5061264;28;20079;-71
2024/01/25 03:30:18;;;;;;;10.93;1.77;;;4.90;99.90;;;;;;5039980;28;20043;-72
2024/01/25 03:32:46;;;;;;;24.35;2.50;;;4.80;99.90;;;;;;5035277;28;20055;-71
2024/01/25 03:35:12;;;;;;;18.85;2.42;;;4.80;99.90;;;;;;5069544;28;20048;-72
2024/01/25 03:37:38;;;;;;;7.93;2.03;;;4.80;99.90;;;;;;5044044;28;20043;-71
2024/01/25 03:40:04;;;;;;;22.65;3.47;;;4.80;99.90;;;;;;5056621;28;20099;-72
2024/01/25 03:42:30;;;;;;;22.27;2.50;;;4.80;99.90;;;;;;5084327;28;20104;-72
2024/01/25 03:44:56;;;;;;;21.80;2.88;;;4.80;99.90;;;;;;5054072;28;20088;-72
2024/01/25 03:47:22;;;;;;;12.98;1.65;;;4.70;99.90;;;;;;5044895;28;20100;-72
2024/01/25 03:49:47;;;;;;;21.10;3.22;;;4.70;99.90;;;;;;5038900;28;20964;-72
2024/01/25 03:52:13;;;;;;;23.35;2.13;;;4.70;99.90;;;;;;5057089;28;20048;-72
2024/01/25 03:54:39;;;;;;;16.83;3.15;;;4.70;99.90;;;;;;5047847;28;20051;-71
2024/01/25 03:57:04;;;;;;;18.73;1.75;;;4.70;99.90;;;;;;5044630;28;20040;-72
2024/01/25 03:59:31;;;;;;;19.17;2.25;;;4.70;99.90;;;;;;5073850;28;20094;-71
2024/01/25 04:01:58;;;;;;;17.15;2.50;;;4.60;99.90;;;;;;5044328;28;20112;-72
2024/01/25 04:04:23;;;;;;;4.63;1.05;;;4.60;99.90;;;;;;5033069;28;20083;-72
2024/01/25 04:06:49;;;;;;;11.93;1.88;;;4.60;99.90;;;;;;5030596;28;20044;-72
2024/01/25 04:09:15;;;;;;;12.07;1.92;;;4.60;99.90;;;;;;5038818;28;20040;-72
2024/01/25 04:11:41;;;;;;;6.82;1.30;;;4.60;99.90;;;;;;5048405;28;20041;-71
2024/01/25 04:14:06;;;;;;;21.20;2.28;;;4.60;99.90;;;;;;5064506;28;20036;-71
2024/01/25 04:16:33;;;;;;;18.48;1.77;;;4.40;99.90;;;;;;5071680;28;20109;-72
2024/01/25 04:18:59;;;;;;;18.25;2.08;;;4.40;99.90;;;;;;5045729;28;20072;-71
2024/01/25 04:21:26;;;;;;;14.45;1.80;;;4.40;99.90;;;;;;5038963;28;20708;-71
2024/01/25 04:23:52;;;;;;;17.38;1.83;;;4.40;99.90;;;;;;5055410;28;20056;-72
2024/01/25 04:26:17;;;;;;;17.45;2.55;;;4.30;99.90;;;;;;5067730;28;20049;-71
2024/01/25 04:28:43;;;;;;;13.50;2.72;;;4.30;99.90;;;;;;5037306;28;20037;-72
2024/01/25 04:31:09;;;;;;;12.73;2.35;;;4.30;99.90;;;;;;5022928;28;20056;-72
2024/01/25 04:33:34;;;;;;;10.13;2.22;;;4.30;99.90;;;;;;5059892;28;20084;-72
2024/01/25 04:36:00;;;;;;;20.33;2.65;;;4.30;99.90;;;;;;5022421;28;20038;-72
2024/01/25 04:38:26;;;;;;;12.98;2.03;;;4.30;99.90;;;;;;5062628;28;20048;-72
2024/01/25 04:40:51;;;;;;;16.52;2.85;;;4.30;99.90;;;;;;5036664;28;20570;-72
2024/01/25 04:43:17;;;;;;;18.98;2.03;;;4.20;99.90;;;;;;5064892;28;20098;-72
2024/01/25 04:45:43;;;;;;;10.57;1.75;;;4.20;99.90;;;;;;5040531;28;20037;-72
2024/01/25 04:48:08;;;;;;;7.93;1.50;;;4.20;99.90;;;;;;5064488;28;20045;-72
2024/01/25 04:50:34;;;;;;;10.52;1.83;;;4.20;99.90;;;;;;5060566;28;20048;-72
2024/01/25 04:53:02;;;;;;;18.67;3.08;;;4.20;99.90;;;;;;5075166;28;20037;-72
2024/01/25 04:55:28;;;;;;;8.25;2.35;;;4.30;99.90;;;;;;5086943;28;20394;-72
2024/01/25 04:57:53;;;;;;;18.75;2.15;;;4.20;99.90;;;;;;5044968;28;20115;-72
2024/01/25 05:00:21;;;;;;;18.90;2.08;;;4.20;99.90;;;;;;5048104;28;20040;-72
2024/01/25 05:02:47;;;;;;;22.60;3.10;;;4.20;99.90;;;;;;5095241;28;20049;-72
2024/01/25 05:05:13;;;;;;;8.38;1.77;;;4.20;99.90;;;;;;5035196;28;20051;-72
2024/01/25 05:07:39;;;;;;;17.27;3.20;;;4.20;99.90;;;;;;5040740;28;20040;-72
2024/01/25 05:10:05;;;;;;;11.20;2.63;;;4.20;99.90;;;;;;5080704;28;20093;-72
2024/01/25 05:12:31;;;;;;;21.48;2.70;;;4.20;99.90;;;;;;5097629;28;20096;-72
2024/01/25 05:14:57;;;;;;;7.63;2.00;;;4.20;99.90;;;;;;5033593;28;20080;-72
2024/01/25 05:17:23;;;;;;;20.98;2.28;;;4.20;99.90;;;;;;5042400;28;20040;-72
2024/01/25 05:19:49;;;;;;;12.10;2.40;;;4.30;99.90;;;;;;5061541;28;20056;-72
2024/01/25 05:22:15;;;;;;;21.92;2.75;;;4.30;99.90;;;;;;5068353;28;20074;-72
2024/01/25 05:24:40;;;;;;;26.00;2.22;;;4.30;99.90;;;;;;5052730;28;20041;-72
2024/01/25 05:27:06;;;;;;;25.85;2.58;;;4.20;99.90;;;;;;5032526;28;20067;-72
2024/01/25 05:29:31;;;;;;;17.13;2.47;;;4.30;99.90;;;;;;5030889;28;20051;-72
2024/01/25 05:31:57;;;;;;;13.75;1.80;;;4.20;99.90;;;;;;5037251;28;20059;-72
2024/01/25 05:34:23;;;;;;;14.38;3.63;;;4.30;99.90;;;;;;5033885;28;20032;-72
2024/01/25 05:36:49;;;;;;;6.85;1.73;;;4.30;99.90;;;;;;5056127;28;20048;-72
2024/01/25 05:39:15;;;;;;;10.20;3.33;;;4.30;99.90;;;;;;5056285;28;20099;-72
2024/01/25 05:41:41;;;;;;;19.08;3.42;;;4.20;99.90;;;;;;5052530;28;20049;-72
2024/01/25 05:44:06;;;;;;;23.08;3.05;;;4.20;99.90;;;;;;5037637;28;20040;-73
2024/01/25 05:46:32;;;;;;;25.45;2.45;;;4.30;99.90;;;;;;5033004;28;20457;-72
2024/01/25 05:48:57;;;;;;;11.60;2.47;;;4.20;99.90;;;;;;5025678;28;20040;-72
2024/01/25 05:51:23;;;;;;;12.52;3.22;;;4.20;99.90;;;;;;5039359;28;20056;-73
2024/01/25 05:53:49;;;;;;;5.15;1.98;;;4.20;99.90;;;;;;5039336;28;20040;-73
2024/01/25 05:56:15;;;;;;;13.07;2.45;;;4.10;99.90;;;;;;5029370;28;20101;-72
2024/01/25 05:58:40;;;;;;;10.50;2.88;;;4.10;99.90;;;;;;5026312;28;20159;-72
2024/01/25 06:01:06;;;;;;;12.27;2.08;;;4.10;99.90;;;;;;5058826;28;20068;-72
2024/01/25 06:03:32;;;;;;;16.42;2.60;;;4.00;99.90;;;;;;5045837;28;20078;-72
2024/01/25 06:05:58;;;;;;;23.90;3.38;;;4.00;99.90;;;;;;5055864;28;20040;-72
2024/01/25 06:08:23;;;;;;;24.00;2.85;;;4.00;99.90;;;;;;5058317;28;20051;-72
2024/01/25 06:10:49;;;;;;;13.63;3.13;;;4.00;99.90;;;;;;5053934;28;20044;-72
2024/01/25 06:13:15;;;;;;;25.67;3.45;;;4.00;99.90;;;;;;5063116;28;20505;-72
2024/01/25 06:15:41;;;;;;;12.20;2.45;;;4.00;99.90;;;;;;5080199;28;20048;-72
2024/01/25 06:18:07;;;;;;;7.72;1.60;;;4.00;99.90;;;;;;5062576;28;20044;-72
2024/01/25 06:20:33;;;;;;;7.90;1.90;;;3.90;99.90;;;;;;5077776;28;20067;-72
2024/01/25 06:22:58;;;;;;;11.70;2.10;;;3.90;99.90;;;;;;5037275;28;20055;-72
2024/01/25 06:25:25;;;;;;;6.80;1.45;;;3.80;99.90;;;;;;5057096;28;20036;-72
2024/01/25 06:27:51;;;;;;;10.82;2.28;;;3.80;99.90;;;;;;5070523;28;20053;-72
2024/01/25 06:30:19;;;;;;;14.70;1.70;;;3.70;99.90;;;;;;5058661;28;20036;-72
2024/01/25 06:32:45;;;;;;;5.38;1.30;;;3.60;99.90;;;;;;5095548;28;20040;-72
2024/01/25 06:35:11;;;;;;;10.50;2.03;;;3.60;99.90;;;;;;5062597;28;20048;-72
2024/01/25 06:37:37;;;;;;;24.00;3.45;;;3.40;99.90;;;;;;5045337;28;20082;-72
2024/01/25 06:40:04;;;;;;;8.57;1.65;;;3.40;99.90;;;;;;5041375;28;20471;-73
2024/01/25 06:42:30;;;;;;;14.57;1.92;;;3.40;99.90;;;;;;5054451;28;20067;-72
2024/01/25 06:44:55;;;;;;;16.92;1.95;;;3.30;99.90;;;;;;5044896;28;20108;-72
2024/01/25 06:47:21;;;;;;;4.63;2.17;;;3.30;99.90;;;;;;5061491;28;20537;-72
2024/01/25 06:49:51;;;;;;;6.50;1.25;;;3.20;99.90;;;;;;5094866;28;20048;-72
2024/01/25 06:52:17;;;;;;;11.23;2.97;;;3.20;99.90;;;;;;5028353;28;20041;-72
2024/01/25 06:54:43;;;;;;;11.15;1.45;;;3.20;99.90;;;;;;5076730;28;20063;-73
2024/01/25 06:57:08;;;;;;;10.60;1.85;;;3.20;99.90;;;;;;5048279;28;20071;-72
2024/01/25 06:59:34;;;;;;;12.50;1.55;;;3.10;99.90;;;;;;5016928;28;20043;-72
2024/01/25 07:02:02;;;;;;;7.47;2.72;;;3.10;99.90;;;;;;5046293;28;20095;-72
2024/01/25 07:04:28;;;;;;;10.73;2.20;;;3.10;99.90;;;;;;5037567;28;20053;-73
2024/01/25 07:06:55;;;;;;;11.95;2.50;;;3.10;99.90;;;;;;5043561;28;20041;-72
2024/01/25 07:09:20;;;;;;;9.05;1.85;;;3.20;99.90;;;;;;5059574;28;20036;-72
2024/01/25 07:11:46;;;;;;;15.38;2.28;;;3.20;99.90;;;;;;5034706;28;20080;-72
2024/01/25 07:14:11;;;;;;;4.88;1.63;;;3.20;99.90;;;;;;5056990;28;20365;-72
2024/01/25 07:16:37;;;;;;;7.60;2.15;;;3.30;99.90;;;;;;5039919;28;20036;-72
2024/01/25 07:19:03;;;;;;;7.07;2.65;;;3.30;99.90;;;;;;5033129;28;20047;-72
2024/01/25 07:21:32;;;;;;;12.50;2.80;;;3.30;99.90;;;;;;5039598;28;20561;-72
2024/01/25 07:24:03;;;;;;;22.05;2.85;;;3.30;99.90;;;;;;5030592;28;20083;-72
2024/01/25 07:26:30;;;;;;;27.27;3.30;;;3.40;99.90;;;;;;5067623;28;20041;-72
2024/01/25 07:28:58;;;;;;;7.70;1.75;;;3.40;99.90;;;;;;5067581;28;20052;-72
2024/01/25 07:31:27;;;;;;;17.00;2.60;;;3.30;99.90;;;;;;5040260;28;20060;-72
2024/01/25 07:33:53;;;;;;;11.63;1.80;;;3.40;99.90;;;;;;5048459;28;20040;-73
2024/01/25 07:36:19;;;;;;;8.02;2.17;;;3.40;99.90;;;;;;5056341;28;20470;-73
2024/01/25 07:38:46;;;;;;;13.13;1.52;;;3.40;99.90;;;;;;5051992;28;20047;-72
2024/01/25 07:41:13;;;;;;;15.30;2.20;;;3.40;99.90;;;;;;5085758;28;20036;-72
2024/01/25 07:43:39;;;;;;;8.73;2.50;;;3.40;99.90;;;;;;5094977;28;20377;-72
2024/01/25 07:46:04;;;;;;;17.30;2.35;;;3.50;99.90;;;;;;5045627;28;20043;-72
2024/01/25 07:48:31;;;;;;;17.52;2.63;;;3.50;99.90;;;;;;5058626;28;20132;-72
2024/01/25 07:50:57;;;;;;;7.90;2.78;;;3.60;99.90;;;;;;5067286;28;20100;-72
2024/01/25 07:53:23;;;;;;;11.45;2.40;;;3.60;99.90;;;;;;5071629;28;20080;-73
2024/01/25 07:55:49;;;;;;;30.60;2.70;;;3.60;99.90;;;;;;5069566;28;20079;-73
2024/01/25 07:58:15;;;;;;;21.85;2.88;;;3.60;99.90;;;;;;5041693;28;20036;-72
2024/01/25 08:00:42;;;;;;;18.73;2.58;;;3.70;99.90;;;;;;5029669;28;20045;-72
2024/01/25 08:03:08;;;;;;;18.25;3.20;;;3.70;99.90;;;;;;5045989;28;20058;-72
2024/01/25 08:05:34;;;;;;;7.93;1.98;;;3.70;99.90;;;;;;5048815;28;20503;-72
2024/01/25 08:08:00;;;;;;;22.38;2.10;;;3.70;99.90;;;;;;5026129;28;20045;-72
2024/01/25 08:10:25;;;;;;;12.15;1.95;;;3.80;99.90;;;;;;5021066;28;20041;-73
2024/01/25 08:12:51;;;;;;;9.38;2.55;;;3.80;99.90;;;;;;5058359;28;20075;-72
2024/01/25 08:15:17;;;;;;;19.55;3.40;;;3.90;99.90;;;;;;5055998;28;20069;-73
2024/01/25 08:17:42;;;;;;;7.60;2.85;;;3.90;99.90;;;;;;5037028;28;20037;-72
2024/01/25 08:20:10;;;;;;;9.43;2.00;;;4.00;99.90;;;;;;5042708;28;20051;-72
2024/01/25 08:22:36;;;;;;;15.30;2.15;;;4.00;99.90;;;;;;5045173;28;20045;-73
2024/01/25 08:25:02;;;;;;;5.65;1.95;;;4.10;99.90;;;;;;5056885;28;20060;-73
2024/01/25 08:27:27;;;;;;;3.58;1.60;;;4.10;99.90;;;;;;5043057;28;20091;-72
2024/01/25 08:29:53;;;;;;;9.68;2.13;;;4.20;99.90;;;;;;5046545;28;20052;-73
2024/01/25 08:32:19;;;;;;;13.75;2.38;;;4.20;99.90;;;;;;5057577;28;20048;-73
2024/01/25 08:34:44;;;;;;;17.63;2.17;;;4.20;99.90;;;;;;5035995;28;20559;-73
2024/01/25 08:37:10;;;;;;;16.30;2.55;;;4.20;99.90;;;;;;5074102;28;20045;-73
2024/01/25 08:39:36;;;;;;;14.77;2.25;;;4.30;99.90;;;;;;5055410;28;20049;-73
2024/01/25 08:42:03;;;;;;;22.95;2.45;;;4.30;99.90;;;;;;5030036;28;20056;-73
2024/01/25 08:44:29;;;;;;;9.60;2.20;;;4.30;99.90;;;;;;5057872;28;20108;-73
2024/01/25 08:46:54;;;;;;;12.88;1.95;;;4.40;99.90;;;;;;5026223;28;20069;-73
2024/01/25 08:49:20;;;;;;;8.57;2.45;;;4.30;99.90;;;;;;5028952;28;20044;-73
2024/01/25 08:51:46;;;;;;;9.43;2.33;;;4.30;99.90;;;;;;5037267;28;20050;-73
2024/01/25 08:54:12;;;;;;;18.25;2.67;;;4.40;99.90;;;;;;5062429;28;20045;-73
2024/01/25 08:56:37;;;;;;;18.67;1.83;;;4.40;99.90;;;;;;5044078;28;20053;-72
2024/01/25 08:59:03;;;;;;;19.67;3.08;;;4.50;99.90;;;;;;5040529;28;20072;-73
2024/01/25 09:01:29;;;;;;;12.77;2.33;;;4.50;99.90;;;;;;5051978;28;20077;-73
2024/01/25 09:03:55;;;;;;;9.38;2.58;;;4.50;99.90;;;;;;5080834;28;20045;-73
2024/01/25 09:06:21;;;;;;;18.65;3.13;;;4.60;99.90;;;;;;5063668;28;20566;-73
2024/01/25 09:08:47;;;;;;;17.85;2.83;;;4.60;99.90;;;;;;5096110;28;20041;-73
2024/01/25 09:11:13;;;;;;;8.95;2.30;;;4.60;99.90;;;;;;5039248;28;20103;-73
2024/01/25 09:13:44;;;;;;;10.35;1.90;;;4.70;99.90;;;;;;5064206;28;20063;-73
2024/01/25 09:16:09;;;;;;;15.70;1.75;;;4.80;99.90;;;;;;5057346;28;20521;-73
2024/01/25 09:18:35;;;;;;;7.43;2.28;;;4.80;99.90;;;;;;5069748;28;20117;-73
2024/01/25 09:21:01;;;;;;;8.20;2.13;;;5.00;99.90;;;;;;5088834;28;20040;-73
2024/01/25 09:23:26;;;;;;;11.10;2.13;;;5.10;99.90;;;;;;5046564;28;20128;-73
2024/01/25 09:25:52;;;;;;;15.55;2.25;;;5.10;99.90;;;;;;5054407;28;20109;-73
2024/01/25 09:28:18;;;;;;;15.23;2.75;;;5.30;99.90;;;;;;5044993;28;20041;-73
2024/01/25 09:30:43;;;;;;;7.38;3.13;;;5.40;99.90;;;;;;5041102;28;20587;-73
2024/01/25 09:33:09;;;;;;;11.70;2.17;;;5.40;99.90;;;;;;5073506;28;20044;-73
2024/01/25 09:35:35;;;;;;;26.77;3.97;;;5.50;99.90;;;;;;5047042;28;20100;-73
2024/01/25 09:38:01;;;;;;;15.27;2.55;;;5.50;99.90;;;;;;5047159;28;20075;-73
2024/01/25 09:40:26;;;;;;;17.50;3.25;;;5.60;99.90;;;;;;5044689;28;20640;-73
2024/01/25 09:42:53;;;;;;;26.08;3.13;;;5.60;99.90;;;;;;5080517;28;20383;-73
2024/01/25 09:45:20;;;;;;;10.32;2.75;;;5.60;99.90;;;;;;5046232;28;20044;-73
2024/01/25 09:47:46;;;;;;;14.95;3.25;;;5.70;99.90;;;;;;5079739;28;20396;-73
2024/01/25 09:50:12;;;;;;;26.52;2.63;;;5.80;99.90;;;;;;5071740;28;20098;-73
2024/01/25 09:52:38;;;;;;;15.25;2.22;;;5.80;99.90;;;;;;5063707;28;20080;-73
2024/01/25 09:55:07;;;;;;;18.63;2.53;;;5.90;99.90;;;;;;5055404;28;20041;-73
2024/01/25 09:57:36;;;;;;;24.08;3.17;;;5.90;99.90;;;;;;5057241;28;20110;-74
2024/01/25 10:00:03;;;;;;;18.85;2.28;;;5.90;99.90;;;;;;5074497;28;20052;-73
2024/01/25 10:02:29;;;;;;;9.07;2.58;;;6.00;99.90;;;;;;5060606;28;20075;-73
2024/01/25 10:04:55;;;;;;;15.80;2.92;;;6.10;99.90;;;;;;5074547;28;20040;-73
2024/01/25 10:08:00;;;;;;;10.10;1.95;;;6.10;99.90;;;;;;5062792;28;20041;-74
2024/01/25 10:10:26;;;;;;;9.52;2.35;;;6.20;99.90;;;;;;5057647;28;20523;-74
2024/01/25 10:12:55;;;;;;;9.13;2.42;;;6.30;99.90;;;;;;5048900;28;20054;-74
2024/01/25 10:15:23;;;;;;;19.45;3.53;;;6.30;99.90;;;;;;5054372;28;20028;-73
2024/01/25 10:17:49;;;;;;;10.57;2.90;;;6.40;99.90;;;;;;5041786;28;20048;-74
2024/01/25 10:20:15;;;;;;;18.25;2.20;;;6.50;99.90;;;;;;5076652;28;20041;-74
2024/01/25 10:22:43;;;;;;;13.60;2.95;;;6.50;99.90;;;;;;5006877;28;20051;-74
2024/01/25 10:25:15;;;;;;;20.58;3.00;;;6.50;99.90;;;;;;5042689;28;20101;-74
2024/01/25 10:27:40;;;;;;;18.45;3.10;;;6.60;99.90;;;;;;5043226;28;20079;-74
2024/01/25 10:30:07;;;;;;;16.67;2.83;;;6.60;99.90;;;;;;5070445;28;20076;-73
2024/01/25 10:32:35;;;;;;;24.17;3.00;;;6.60;99.90;;;;;;5028572;28;20767;-74
2024/01/25 10:35:01;;;;;;;17.27;3.38;;;6.70;99.90;;;;;;5074735;28;20078;-74
2024/01/25 10:37:28;;;;;;;23.52;3.42;;;6.70;99.90;;;;;;5062374;28;20488;-74
2024/01/25 10:39:55;;;;;;;12.80;3.05;;;6.80;99.90;;;;;;5096061;28;20044;-73
2024/01/25 10:42:21;;;;;;;19.55;4.25;;;6.80;99.90;;;;;;5078884;28;20036;-74
2024/01/25 10:44:47;;;;;;;20.00;4.68;;;6.80;99.90;;;;;;5077207;28;20045;-74
2024/01/25 10:47:13;;;;;;;25.25;2.78;;;6.80;99.90;;;;;;5055599;28;20139;-73
2024/01/25 10:49:39;;;;;;;13.60;2.45;;;6.80;99.90;;;;;;5065812;28;20518;-73
2024/01/25 10:52:06;;;;;;;17.55;2.55;;;6.90;99.90;;;;;;5036558;28;20044;-74
2024/01/25 10:54:33;;;;;;;9.88;2.83;;;6.90;99.90;;;;;;5065860;28;20629;-74
2024/01/25 10:56:59;;;;;;;10.50;2.67;;;6.90;99.90;;;;;;5033525;28;20063;-74
2024/01/25 10:59:25;;;;;;;15.85;2.53;;;7.00;99.90;;;;;;5049987;28;20029;-73
2024/01/25 11:01:51;;;;;;;16.88;2.38;;;7.10;99.90;;;;;;5076537;28;20127;-73
2024/01/25 11:04:19;;;;;;;18.67;3.17;;;7.10;99.90;;;;;;5079844;28;20089;-74
2024/01/25 11:06:45;;;;;;;15.10;2.65;;;7.20;99.90;;;;;;5032622;28;20044;-73
2024/01/25 11:09:17;;;;;;;16.73;2.55;;;7.30;99.90;;;;;;5076840;28;20036;-73
2024/01/25 11:11:47;;;;;;;13.15;2.97;;;7.30;99.90;;;;;;5064277;28;20069;-74
2024/01/25 11:14:14;;;;;;;21.48;3.15;;;7.30;99.90;;;;;;5056897;28;20049;-74
2024/01/25 11:16:44;;;;;;;19.85;2.58;;;7.30;99.90;;;;;;5074486;28;20067;-73
2024/01/25 11:19:25;;;;;;;18.45;3.03;;;7.40;99.90;;;;;;5084206;28;20037;-74
2024/01/25 11:21:52;;;;;;;14.27;2.88;;;7.40;99.90;;;;;;5065896;28;20029;-74
2024/01/25 11:24:28;;;;;;;25.60;3.13;;;7.40;99.90;;;;;;5091878;28;20146;-74
2024/01/25 11:26:55;;;;;;;24.40;4.13;;;7.50;99.90;;;;;;5063608;28;20462;-74
2024/01/25 11:29:22;;;;;;;7.07;2.38;;;7.60;99.90;;;;;;5051535;28;20048;-73
2024/01/25 11:31:50;;;;;;;21.98;3.28;;;7.70;99.90;;;;;;5086038;28;20059;-73
2024/01/25 11:34:17;;;;;;;14.68;2.97;;;7.80;99.90;;;;;;5050523;28;20037;-73
2024/01/25 11:36:44;;;;;;;20.60;3.08;;;8.00;99.90;;;;;;5027598;28;20377;-78
2024/01/25 11:39:11;;;;;;;21.90;3.50;;;8.10;99.90;;;;;;5061166;28;20044;-74
2024/01/25 11:41:37;;;;;;;16.75;2.55;;;8.20;99.90;;;;;;5068767;28;20136;-73
2024/01/25 11:44:03;;;;;;;19.00;2.72;;;8.20;99.90;;;;;;5056479;28;20481;-74
2024/01/25 11:46:29;;;;;;;27.00;3.75;;;8.20;99.90;;;;;;5072910;28;20087;-73
2024/01/25 11:48:55;;;;;;;20.25;3.17;;;8.30;99.90;;;;;;5094429;28;20457;-74
2024/01/25 11:51:21;;;;;;;24.33;2.63;;;8.30;99.90;;;;;;5061477;28;20032;-74
2024/01/25 11:53:47;;;;;;;13.85;3.03;;;8.30;99.90;;;;;;5067188;28;20044;-74
2024/01/25 11:56:16;;;;;;;21.13;3.78;;;8.30;99.90;;;;;;5039175;28;20074;-74
2024/01/25 11:58:45;;;;;;;19.45;3.03;;;8.30;99.90;;;;;;5060803;28;20049;-74
2024/01/25 12:01:12;;;;;;;13.63;2.75;;;8.30;99.90;;;;;;5061108;28;20075;-73
2024/01/25 12:03:40;;;;;;;17.70;3.00;;;8.30;99.90;;;;;;5047797;28;20057;-73
2024/01/25 12:06:09;;;;;;;21.45;4.82;;;8.20;99.90;;;;;;5045593;28;20619;-73
2024/01/25 12:08:35;;;;;;;26.98;4.05;;;8.30;99.90;;;;;;5048681;28;20120;-73
2024/01/25 12:11:08;;;;;;;16.63;3.15;;;8.30;99.90;;;;;;5064772;28;20049;-74
2024/01/25 12:13:35;;;;;;;14.80;3.58;;;8.40;99.90;;;;;;5047149;28;20535;-74
2024/01/25 12:16:04;;;;;;;22.73;3.88;;;8.40;99.90;;;;;;5041858;28;20073;-73
2024/01/25 12:18:31;;;;;;;18.77;3.30;;;8.50;99.90;;;;;;5065510;28;20479;-74
2024/01/25 12:21:00;;;;;;;19.10;4.75;;;8.40;99.90;;;;;;5081716;28;20051;-73
2024/01/25 12:23:34;;;;;;;18.98;4.45;;;8.50;99.90;;;;;;5040716;28;20044;-73
2024/01/25 12:26:03;;;;;;;18.48;4.38;;;8.30;99.90;;;;;;5082031;28;20071;-74
2024/01/25 12:28:33;;;;;;;17.17;2.97;;;8.30;99.90;;;;;;5035493;28;20499;-74
2024/01/25 12:31:00;;;;;;;16.42;3.08;;;8.30;99.90;;;;;;5064535;28;20098;-73
2024/01/25 12:33:26;;;;;;;9.75;2.05;;;8.30;99.90;;;;;;5098012;28;20203;-73
2024/01/25 12:35:53;;;;;;;14.48;2.65;;;8.30;99.90;;;;;;5051575;28;20052;-74
2024/01/25 12:38:20;;;;;;;17.17;3.72;;;8.30;99.90;;;;;;5058060;28;20046;-74
2024/01/25 12:40:48;;;;;;;20.52;2.63;;;8.30;99.90;;;;;;5033991;28;20051;-73
2024/01/25 12:43:15;;;;;;;8.70;2.38;;;8.30;99.90;;;;;;5049077;28;20049;-74